sensor_id;sensor_type;location;lat;lon;timestamp;P1;durP1;ratioP1;P2;durP2;ratioP2
46415;SDS011;32620;51.704;7.822;2024-01-30T00:01:51;25.73;;;15.60;;
46415;SDS011;32620;51.704;7.822;2024-01-30T00:04:17;27.52;;;16.08;;
46415;SDS011;32620;51.704;7.822;2024-01-30T00:06:43;23.20;;;15.00;;
46415;SDS011;32620;51.704;7.822;2024-01-30T00:09:09;29.90;;;17.15;;
46415;SDS011;32620;51.704;7.822;2024-01-30T00:11:36;27.05;;;17.13;;
46415;SDS011;32620;51.704;7.822;2024-01-30T00:14:03;28.63;;;16.98;;
46415;SDS011;32620;51.704;7.822;2024-01-30T00:16:29;25.58;;;16.25;;
46415;SDS011;32620;51.704;7.822;2024-01-30T00:18:54;24.60;;;16.25;;
46415;SDS011;32620;51.704;7.822;2024-01-30T00:21:20;33.20;;;18.25;;
46415;SDS011;32620;51.704;7.822;2024-01-30T00:23:46;26.20;;;16.88;;
46415;SDS011;32620;51.704;7.822;2024-01-30T00:26:12;31.77;;;17.80;;
46415;SDS011;32620;51.704;7.822;2024-01-30T00:28:39;32.05;;;17.85;;
46415;SDS011;32620;51.704;7.822;2024-01-30T00:31:05;29.05;;;17.80;;
46415;SDS011;32620;51.704;7.822;2024-01-30T00:33:31;31.55;;;18.67;;
46415;SDS011;32620;51.704;7.822;2024-01-30T00:35:56;27.83;;;17.58;;
46415;SDS011;32620;51.704;7.822;2024-01-30T00:38:22;30.80;;;17.55;;
46415;SDS011;32620;51.704;7.822;2024-01-30T00:40:48;33.72;;;19.05;;
46415;SDS011;32620;51.704;7.822;2024-01-30T00:43:13;33.38;;;18.38;;
46415;SDS011;32620;51.704;7.822;2024-01-30T00:45:40;33.83;;;18.65;;
46415;SDS011;32620;51.704;7.822;2024-01-30T00:48:05;35.47;;;19.25;;
46415;SDS011;32620;51.704;7.822;2024-01-30T00:50:31;30.92;;;19.15;;
46415;SDS011;32620;51.704;7.822;2024-01-30T00:52:56;30.77;;;18.35;;
46415;SDS011;32620;51.704;7.822;2024-01-30T00:55:22;31.02;;;18.60;;
46415;SDS011;32620;51.704;7.822;2024-01-30T00:57:47;29.45;;;18.05;;
46415;SDS011;32620;51.704;7.822;2024-01-30T01:00:13;28.88;;;17.42;;
46415;SDS011;32620;51.704;7.822;2024-01-30T01:02:42;32.75;;;19.65;;
46415;SDS011;32620;51.704;7.822;2024-01-30T01:05:07;28.92;;;17.15;;
46415;SDS011;32620;51.704;7.822;2024-01-30T01:07:33;29.13;;;17.15;;
46415;SDS011;32620;51.704;7.822;2024-01-30T01:09:59;29.30;;;17.90;;
46415;SDS011;32620;51.704;7.822;2024-01-30T01:12:24;27.48;;;16.40;;
46415;SDS011;32620;51.704;7.822;2024-01-30T01:14:50;32.22;;;17.02;;
46415;SDS011;32620;51.704;7.822;2024-01-30T01:17:15;32.97;;;18.20;;
46415;SDS011;32620;51.704;7.822;2024-01-30T01:19:41;34.50;;;20.25;;
46415;SDS011;32620;51.704;7.822;2024-01-30T01:22:06;31.75;;;18.90;;
46415;SDS011;32620;51.704;7.822;2024-01-30T01:24:32;31.80;;;18.27;;
46415;SDS011;32620;51.704;7.822;2024-01-30T01:26:58;36.20;;;19.50;;
46415;SDS011;32620;51.704;7.822;2024-01-30T01:29:24;31.75;;;19.35;;
46415;SDS011;32620;51.704;7.822;2024-01-30T01:31:54;33.17;;;19.25;;
46415;SDS011;32620;51.704;7.822;2024-01-30T01:34:20;29.65;;;17.92;;
46415;SDS011;32620;51.704;7.822;2024-01-30T01:36:46;30.83;;;18.75;;
46415;SDS011;32620;51.704;7.822;2024-01-30T01:39:11;30.48;;;18.23;;
46415;SDS011;32620;51.704;7.822;2024-01-30T01:41:37;27.58;;;17.77;;
46415;SDS011;32620;51.704;7.822;2024-01-30T01:44:03;27.90;;;17.50;;
46415;SDS011;32620;51.704;7.822;2024-01-30T01:46:30;28.05;;;17.05;;
46415;SDS011;32620;51.704;7.822;2024-01-30T01:48:57;28.17;;;17.17;;
46415;SDS011;32620;51.704;7.822;2024-01-30T01:51:24;28.88;;;16.92;;
46415;SDS011;32620;51.704;7.822;2024-01-30T01:53:52;29.65;;;17.83;;
46415;SDS011;32620;51.704;7.822;2024-01-30T01:56:19;27.13;;;17.13;;
46415;SDS011;32620;51.704;7.822;2024-01-30T01:58:44;34.65;;;17.83;;
46415;SDS011;32620;51.704;7.822;2024-01-30T02:01:12;32.58;;;17.58;;
46415;SDS011;32620;51.704;7.822;2024-01-30T02:03:39;34.42;;;19.02;;
46415;SDS011;32620;51.704;7.822;2024-01-30T02:06:06;28.92;;;16.95;;
46415;SDS011;32620;51.704;7.822;2024-01-30T02:08:32;29.60;;;17.50;;
46415;SDS011;32620;51.704;7.822;2024-01-30T02:10:58;28.88;;;17.15;;
46415;SDS011;32620;51.704;7.822;2024-01-30T02:13:24;29.15;;;17.20;;
46415;SDS011;32620;51.704;7.822;2024-01-30T02:15:51;29.30;;;17.23;;
46415;SDS011;32620;51.704;7.822;2024-01-30T02:18:16;30.27;;;17.80;;
46415;SDS011;32620;51.704;7.822;2024-01-30T02:20:42;29.05;;;16.73;;
46415;SDS011;32620;51.704;7.822;2024-01-30T02:23:09;25.90;;;17.02;;
46415;SDS011;32620;51.704;7.822;2024-01-30T02:25:38;28.30;;;17.35;;
46415;SDS011;32620;51.704;7.822;2024-01-30T02:28:12;28.05;;;17.63;;
46415;SDS011;32620;51.704;7.822;2024-01-30T02:30:39;32.17;;;18.50;;
46415;SDS011;32620;51.704;7.822;2024-01-30T02:33:05;26.63;;;16.63;;
46415;SDS011;32620;51.704;7.822;2024-01-30T02:35:30;27.27;;;16.92;;
46415;SDS011;32620;51.704;7.822;2024-01-30T02:37:56;30.77;;;18.60;;
46415;SDS011;32620;51.704;7.822;2024-01-30T02:40:22;30.48;;;18.60;;
46415;SDS011;32620;51.704;7.822;2024-01-30T02:42:47;29.88;;;17.77;;
46415;SDS011;32620;51.704;7.822;2024-01-30T02:45:13;34.80;;;20.08;;
46415;SDS011;32620;51.704;7.822;2024-01-30T02:47:39;38.53;;;19.27;;
46415;SDS011;32620;51.704;7.822;2024-01-30T02:50:05;34.97;;;18.92;;
46415;SDS011;32620;51.704;7.822;2024-01-30T02:52:30;36.83;;;19.88;;
46415;SDS011;32620;51.704;7.822;2024-01-30T02:54:56;35.15;;;20.10;;
46415;SDS011;32620;51.704;7.822;2024-01-30T02:57:22;37.15;;;20.88;;
46415;SDS011;32620;51.704;7.822;2024-01-30T02:59:47;36.72;;;21.40;;
46415;SDS011;32620;51.704;7.822;2024-01-30T03:02:13;36.63;;;20.90;;
46415;SDS011;32620;51.704;7.822;2024-01-30T03:04:40;32.75;;;19.05;;
46415;SDS011;32620;51.704;7.822;2024-01-30T03:07:06;34.83;;;20.08;;
46415;SDS011;32620;51.704;7.822;2024-01-30T03:09:32;39.92;;;20.83;;
46415;SDS011;32620;51.704;7.822;2024-01-30T03:11:57;36.72;;;20.00;;
46415;SDS011;32620;51.704;7.822;2024-01-30T03:14:23;33.97;;;19.67;;
46415;SDS011;32620;51.704;7.822;2024-01-30T03:16:48;35.53;;;21.25;;
46415;SDS011;32620;51.704;7.822;2024-01-30T03:19:14;43.10;;;20.77;;
46415;SDS011;32620;51.704;7.822;2024-01-30T03:21:40;41.10;;;22.83;;
46415;SDS011;32620;51.704;7.822;2024-01-30T03:24:05;33.33;;;20.45;;
46415;SDS011;32620;51.704;7.822;2024-01-30T03:26:31;34.85;;;20.55;;
46415;SDS011;32620;51.704;7.822;2024-01-30T03:28:56;35.22;;;20.10;;
46415;SDS011;32620;51.704;7.822;2024-01-30T03:31:22;30.60;;;19.83;;
46415;SDS011;32620;51.704;7.822;2024-01-30T03:33:47;33.97;;;19.95;;
46415;SDS011;32620;51.704;7.822;2024-01-30T03:36:14;33.60;;;19.67;;
46415;SDS011;32620;51.704;7.822;2024-01-30T03:38:40;28.70;;;18.60;;
46415;SDS011;32620;51.704;7.822;2024-01-30T03:41:07;34.72;;;19.20;;
46415;SDS011;32620;51.704;7.822;2024-01-30T03:43:34;37.60;;;20.17;;
46415;SDS011;32620;51.704;7.822;2024-01-30T03:46:00;33.50;;;19.23;;
46415;SDS011;32620;51.704;7.822;2024-01-30T03:48:27;34.67;;;19.23;;
46415;SDS011;32620;51.704;7.822;2024-01-30T03:50:52;31.65;;;19.17;;
46415;SDS011;32620;51.704;7.822;2024-01-30T03:53:18;32.03;;;18.65;;
46415;SDS011;32620;51.704;7.822;2024-01-30T03:55:43;34.72;;;19.88;;
46415;SDS011;32620;51.704;7.822;2024-01-30T03:58:09;31.25;;;18.90;;
46415;SDS011;32620;51.704;7.822;2024-01-30T04:00:34;35.35;;;19.73;;
46415;SDS011;32620;51.704;7.822;2024-01-30T04:03:00;28.92;;;18.38;;
46415;SDS011;32620;51.704;7.822;2024-01-30T04:05:25;29.50;;;18.85;;
46415;SDS011;32620;51.704;7.822;2024-01-30T04:07:51;30.45;;;18.55;;
46415;SDS011;32620;51.704;7.822;2024-01-30T04:10:17;35.13;;;20.00;;
46415;SDS011;32620;51.704;7.822;2024-01-30T04:12:42;34.83;;;20.25;;
46415;SDS011;32620;51.704;7.822;2024-01-30T04:15:08;37.22;;;20.17;;
46415;SDS011;32620;51.704;7.822;2024-01-30T04:17:33;33.25;;;18.67;;
46415;SDS011;32620;51.704;7.822;2024-01-30T04:19:59;32.10;;;18.75;;
46415;SDS011;32620;51.704;7.822;2024-01-30T04:22:25;31.20;;;18.23;;
46415;SDS011;32620;51.704;7.822;2024-01-30T04:24:50;29.92;;;18.27;;
46415;SDS011;32620;51.704;7.822;2024-01-30T04:27:15;35.53;;;19.35;;
46415;SDS011;32620;51.704;7.822;2024-01-30T04:29:41;30.83;;;18.05;;
46415;SDS011;32620;51.704;7.822;2024-01-30T04:32:06;30.88;;;18.23;;
46415;SDS011;32620;51.704;7.822;2024-01-30T04:34:32;26.73;;;16.38;;
46415;SDS011;32620;51.704;7.822;2024-01-30T04:36:58;28.38;;;17.42;;
46415;SDS011;32620;51.704;7.822;2024-01-30T04:39:23;31.10;;;17.02;;
46415;SDS011;32620;51.704;7.822;2024-01-30T04:41:49;31.55;;;18.83;;
46415;SDS011;32620;51.704;7.822;2024-01-30T04:44:14;30.35;;;16.95;;
46415;SDS011;32620;51.704;7.822;2024-01-30T04:46:40;34.92;;;19.00;;
46415;SDS011;32620;51.704;7.822;2024-01-30T04:49:05;33.38;;;19.05;;
46415;SDS011;32620;51.704;7.822;2024-01-30T04:51:32;30.88;;;18.42;;
46415;SDS011;32620;51.704;7.822;2024-01-30T04:53:58;34.97;;;19.90;;
46415;SDS011;32620;51.704;7.822;2024-01-30T04:56:24;31.52;;;18.08;;
46415;SDS011;32620;51.704;7.822;2024-01-30T04:58:49;34.95;;;17.95;;
46415;SDS011;32620;51.704;7.822;2024-01-30T05:01:15;35.13;;;19.75;;
46415;SDS011;32620;51.704;7.822;2024-01-30T05:03:41;30.50;;;18.63;;
46415;SDS011;32620;51.704;7.822;2024-01-30T05:06:07;31.40;;;18.58;;
46415;SDS011;32620;51.704;7.822;2024-01-30T05:08:32;31.88;;;18.60;;
46415;SDS011;32620;51.704;7.822;2024-01-30T05:11:00;31.33;;;19.55;;
46415;SDS011;32620;51.704;7.822;2024-01-30T05:13:26;33.65;;;20.67;;
46415;SDS011;32620;51.704;7.822;2024-01-30T05:15:52;36.38;;;19.80;;
46415;SDS011;32620;51.704;7.822;2024-01-30T05:18:17;36.53;;;19.25;;
46415;SDS011;32620;51.704;7.822;2024-01-30T05:20:43;39.05;;;20.08;;
46415;SDS011;32620;51.704;7.822;2024-01-30T05:23:08;37.13;;;19.98;;
46415;SDS011;32620;51.704;7.822;2024-01-30T05:25:34;36.92;;;20.52;;
46415;SDS011;32620;51.704;7.822;2024-01-30T05:27:59;33.75;;;19.30;;
46415;SDS011;32620;51.704;7.822;2024-01-30T05:30:25;35.15;;;20.33;;
46415;SDS011;32620;51.704;7.822;2024-01-30T05:32:50;38.70;;;20.70;;
46415;SDS011;32620;51.704;7.822;2024-01-30T05:35:17;29.60;;;18.45;;
46415;SDS011;32620;51.704;7.822;2024-01-30T05:37:43;32.85;;;20.00;;
46415;SDS011;32620;51.704;7.822;2024-01-30T05:40:08;34.75;;;19.63;;
46415;SDS011;32620;51.704;7.822;2024-01-30T05:42:34;36.63;;;19.20;;
46415;SDS011;32620;51.704;7.822;2024-01-30T05:45:00;33.40;;;19.20;;
46415;SDS011;32620;51.704;7.822;2024-01-30T05:47:25;29.67;;;18.20;;
46415;SDS011;32620;51.704;7.822;2024-01-30T05:49:51;31.65;;;18.90;;
46415;SDS011;32620;51.704;7.822;2024-01-30T05:52:16;33.80;;;18.98;;
46415;SDS011;32620;51.704;7.822;2024-01-30T05:54:43;38.22;;;19.83;;
46415;SDS011;32620;51.704;7.822;2024-01-30T05:57:09;41.63;;;19.33;;
46415;SDS011;32620;51.704;7.822;2024-01-30T05:59:35;35.97;;;19.30;;
46415;SDS011;32620;51.704;7.822;2024-01-30T06:02:01;36.25;;;20.48;;
46415;SDS011;32620;51.704;7.822;2024-01-30T06:04:26;39.83;;;19.25;;
46415;SDS011;32620;51.704;7.822;2024-01-30T06:06:52;37.63;;;20.75;;
46415;SDS011;32620;51.704;7.822;2024-01-30T06:09:17;33.70;;;19.60;;
46415;SDS011;32620;51.704;7.822;2024-01-30T06:11:43;36.13;;;19.50;;
46415;SDS011;32620;51.704;7.822;2024-01-30T06:14:08;31.88;;;18.20;;
46415;SDS011;32620;51.704;7.822;2024-01-30T06:16:34;33.15;;;17.50;;
46415;SDS011;32620;51.704;7.822;2024-01-30T06:19:00;32.38;;;18.65;;
46415;SDS011;32620;51.704;7.822;2024-01-30T06:21:25;33.53;;;18.60;;
46415;SDS011;32620;51.704;7.822;2024-01-30T06:23:51;30.38;;;17.05;;
46415;SDS011;32620;51.704;7.822;2024-01-30T06:26:16;34.15;;;18.00;;
46415;SDS011;32620;51.704;7.822;2024-01-30T06:28:42;35.80;;;17.48;;
46415;SDS011;32620;51.704;7.822;2024-01-30T06:31:07;27.33;;;17.40;;
46415;SDS011;32620;51.704;7.822;2024-01-30T06:33:33;34.53;;;18.45;;
46415;SDS011;32620;51.704;7.822;2024-01-30T06:35:58;32.17;;;18.27;;
46415;SDS011;32620;51.704;7.822;2024-01-30T06:38:24;31.60;;;17.60;;
46415;SDS011;32620;51.704;7.822;2024-01-30T06:40:49;30.92;;;17.50;;
46415;SDS011;32620;51.704;7.822;2024-01-30T06:43:15;32.10;;;17.73;;
46415;SDS011;32620;51.704;7.822;2024-01-30T06:45:40;41.53;;;19.30;;
46415;SDS011;32620;51.704;7.822;2024-01-30T06:48:07;30.27;;;17.33;;
46415;SDS011;32620;51.704;7.822;2024-01-30T06:50:33;41.83;;;22.85;;
46415;SDS011;32620;51.704;7.822;2024-01-30T06:52:58;33.40;;;18.80;;
46415;SDS011;32620;51.704;7.822;2024-01-30T06:55:24;34.78;;;19.60;;
46415;SDS011;32620;51.704;7.822;2024-01-30T06:57:49;32.78;;;18.35;;
46415;SDS011;32620;51.704;7.822;2024-01-30T07:00:15;35.67;;;18.90;;
46415;SDS011;32620;51.704;7.822;2024-01-30T07:02:41;34.30;;;19.33;;
46415;SDS011;32620;51.704;7.822;2024-01-30T07:05:07;32.25;;;19.10;;
46415;SDS011;32620;51.704;7.822;2024-01-30T07:07:33;30.73;;;18.23;;
46415;SDS011;32620;51.704;7.822;2024-01-30T07:09:58;30.98;;;17.67;;
46415;SDS011;32620;51.704;7.822;2024-01-30T07:12:24;36.05;;;19.20;;
46415;SDS011;32620;51.704;7.822;2024-01-30T07:14:50;35.50;;;18.77;;
46415;SDS011;32620;51.704;7.822;2024-01-30T07:17:16;34.88;;;17.85;;
46415;SDS011;32620;51.704;7.822;2024-01-30T07:19:42;27.02;;;17.13;;
46415;SDS011;32620;51.704;7.822;2024-01-30T07:22:07;33.22;;;18.67;;
46415;SDS011;32620;51.704;7.822;2024-01-30T07:24:33;43.78;;;24.10;;
46415;SDS011;32620;51.704;7.822;2024-01-30T07:26:59;38.97;;;20.27;;
46415;SDS011;32620;51.704;7.822;2024-01-30T07:29:24;34.75;;;19.83;;
46415;SDS011;32620;51.704;7.822;2024-01-30T07:31:50;33.42;;;19.60;;
46415;SDS011;32620;51.704;7.822;2024-01-30T07:34:15;32.63;;;18.85;;
46415;SDS011;32620;51.704;7.822;2024-01-30T07:36:41;41.70;;;19.30;;
46415;SDS011;32620;51.704;7.822;2024-01-30T07:39:07;30.80;;;18.10;;
46415;SDS011;32620;51.704;7.822;2024-01-30T07:41:32;29.50;;;18.17;;
46415;SDS011;32620;51.704;7.822;2024-01-30T07:43:58;34.17;;;19.55;;
46415;SDS011;32620;51.704;7.822;2024-01-30T07:46:23;29.58;;;18.15;;
46415;SDS011;32620;51.704;7.822;2024-01-30T07:48:49;39.63;;;20.33;;
46415;SDS011;32620;51.704;7.822;2024-01-30T07:51:14;40.25;;;20.55;;
46415;SDS011;32620;51.704;7.822;2024-01-30T07:53:40;34.40;;;19.75;;
46415;SDS011;32620;51.704;7.822;2024-01-30T07:56:06;31.25;;;19.02;;
46415;SDS011;32620;51.704;7.822;2024-01-30T07:58:32;27.77;;;16.95;;
46415;SDS011;32620;51.704;7.822;2024-01-30T08:00:57;34.90;;;20.50;;
46415;SDS011;32620;51.704;7.822;2024-01-30T08:03:23;30.60;;;19.15;;
46415;SDS011;32620;51.704;7.822;2024-01-30T08:05:49;32.30;;;17.73;;
46415;SDS011;32620;51.704;7.822;2024-01-30T08:08:14;29.45;;;17.77;;
46415;SDS011;32620;51.704;7.822;2024-01-30T08:10:40;38.45;;;22.25;;
46415;SDS011;32620;51.704;7.822;2024-01-30T08:13:06;32.03;;;19.98;;
46415;SDS011;32620;51.704;7.822;2024-01-30T08:15:33;29.30;;;18.20;;
46415;SDS011;32620;51.704;7.822;2024-01-30T08:17:58;31.70;;;18.90;;
46415;SDS011;32620;51.704;7.822;2024-01-30T08:20:24;33.03;;;20.35;;
46415;SDS011;32620;51.704;7.822;2024-01-30T08:22:50;32.28;;;19.83;;
46415;SDS011;32620;51.704;7.822;2024-01-30T08:25:16;28.27;;;18.05;;
46415;SDS011;32620;51.704;7.822;2024-01-30T08:27:42;38.53;;;21.92;;
46415;SDS011;32620;51.704;7.822;2024-01-30T08:30:08;35.22;;;20.73;;
46415;SDS011;32620;51.704;7.822;2024-01-30T08:32:34;31.35;;;19.75;;
46415;SDS011;32620;51.704;7.822;2024-01-30T08:35:00;33.60;;;19.42;;
46415;SDS011;32620;51.704;7.822;2024-01-30T08:37:29;29.92;;;19.27;;
46415;SDS011;32620;51.704;7.822;2024-01-30T08:39:55;28.17;;;17.73;;
46415;SDS011;32620;51.704;7.822;2024-01-30T08:42:21;34.58;;;19.77;;
46415;SDS011;32620;51.704;7.822;2024-01-30T08:44:47;28.05;;;17.10;;
46415;SDS011;32620;51.704;7.822;2024-01-30T08:47:14;24.63;;;15.18;;
46415;SDS011;32620;51.704;7.822;2024-01-30T08:49:41;28.52;;;18.48;;
46415;SDS011;32620;51.704;7.822;2024-01-30T08:52:09;29.75;;;18.60;;
46415;SDS011;32620;51.704;7.822;2024-01-30T08:54:36;27.02;;;18.45;;
46415;SDS011;32620;51.704;7.822;2024-01-30T08:57:01;25.02;;;16.95;;
46415;SDS011;32620;51.704;7.822;2024-01-30T08:59:27;24.35;;;14.48;;
46415;SDS011;32620;51.704;7.822;2024-01-30T09:01:53;20.98;;;13.75;;
46415;SDS011;32620;51.704;7.822;2024-01-30T09:04:20;23.40;;;15.02;;
46415;SDS011;32620;51.704;7.822;2024-01-30T09:06:46;23.13;;;14.55;;
46415;SDS011;32620;51.704;7.822;2024-01-30T09:09:12;24.15;;;14.30;;
46415;SDS011;32620;51.704;7.822;2024-01-30T09:11:39;25.98;;;14.32;;
46415;SDS011;32620;51.704;7.822;2024-01-30T09:14:05;23.02;;;14.63;;
46415;SDS011;32620;51.704;7.822;2024-01-30T09:16:30;23.63;;;14.23;;
46415;SDS011;32620;51.704;7.822;2024-01-30T09:18:56;19.33;;;12.95;;
46415;SDS011;32620;51.704;7.822;2024-01-30T09:21:21;21.35;;;14.05;;
46415;SDS011;32620;51.704;7.822;2024-01-30T09:23:48;24.10;;;13.93;;
46415;SDS011;32620;51.704;7.822;2024-01-30T09:26:13;22.85;;;13.18;;
46415;SDS011;32620;51.704;7.822;2024-01-30T09:28:39;27.15;;;14.30;;
46415;SDS011;32620;51.704;7.822;2024-01-30T09:31:09;23.67;;;13.93;;
46415;SDS011;32620;51.704;7.822;2024-01-30T09:33:35;23.55;;;16.45;;
46415;SDS011;32620;51.704;7.822;2024-01-30T09:36:01;23.70;;;16.15;;
46415;SDS011;32620;51.704;7.822;2024-01-30T09:38:26;21.98;;;14.43;;
46415;SDS011;32620;51.704;7.822;2024-01-30T09:40:53;22.02;;;12.95;;
46415;SDS011;32620;51.704;7.822;2024-01-30T09:43:22;21.00;;;14.07;;
46415;SDS011;32620;51.704;7.822;2024-01-30T09:45:49;25.08;;;15.63;;
46415;SDS011;32620;51.704;7.822;2024-01-30T09:48:16;23.38;;;15.05;;
46415;SDS011;32620;51.704;7.822;2024-01-30T09:50:41;26.48;;;19.45;;
46415;SDS011;32620;51.704;7.822;2024-01-30T09:53:07;37.55;;;23.88;;
46415;SDS011;32620;51.704;7.822;2024-01-30T09:55:34;37.28;;;27.58;;
46415;SDS011;32620;51.704;7.822;2024-01-30T09:58:01;34.63;;;23.50;;
46415;SDS011;32620;51.704;7.822;2024-01-30T10:00:27;25.60;;;15.80;;
46415;SDS011;32620;51.704;7.822;2024-01-30T10:02:52;19.48;;;14.65;;
46415;SDS011;32620;51.704;7.822;2024-01-30T10:05:19;22.25;;;14.38;;
46415;SDS011;32620;51.704;7.822;2024-01-30T10:07:52;24.50;;;14.50;;
46415;SDS011;32620;51.704;7.822;2024-01-30T10:10:21;22.95;;;15.07;;
46415;SDS011;32620;51.704;7.822;2024-01-30T10:12:47;24.95;;;14.07;;
46415;SDS011;32620;51.704;7.822;2024-01-30T10:15:13;20.42;;;12.43;;
46415;SDS011;32620;51.704;7.822;2024-01-30T10:17:39;24.48;;;12.45;;
46415;SDS011;32620;51.704;7.822;2024-01-30T10:20:05;19.08;;;11.43;;
46415;SDS011;32620;51.704;7.822;2024-01-30T10:22:32;18.55;;;11.65;;
46415;SDS011;32620;51.704;7.822;2024-01-30T10:24:58;26.52;;;12.10;;
46415;SDS011;32620;51.704;7.822;2024-01-30T10:27:26;19.35;;;11.20;;
46415;SDS011;32620;51.704;7.822;2024-01-30T10:29:52;19.50;;;10.80;;
46415;SDS011;32620;51.704;7.822;2024-01-30T10:32:18;18.48;;;10.68;;
46415;SDS011;32620;51.704;7.822;2024-01-30T10:34:45;18.00;;;10.52;;
46415;SDS011;32620;51.704;7.822;2024-01-30T10:37:11;15.07;;;9.43;;
46415;SDS011;32620;51.704;7.822;2024-01-30T10:39:40;20.75;;;10.63;;
46415;SDS011;32620;51.704;7.822;2024-01-30T10:42:07;15.05;;;9.93;;
46415;SDS011;32620;51.704;7.822;2024-01-30T10:44:38;18.40;;;10.60;;
46415;SDS011;32620;51.704;7.822;2024-01-30T10:47:18;14.55;;;9.82;;
46415;SDS011;32620;51.704;7.822;2024-01-30T10:49:50;19.02;;;9.35;;
46415;SDS011;32620;51.704;7.822;2024-01-30T10:52:17;17.38;;;10.50;;
46415;SDS011;32620;51.704;7.822;2024-01-30T10:54:43;19.63;;;10.18;;
46415;SDS011;32620;51.704;7.822;2024-01-30T10:57:10;15.20;;;9.43;;
46415;SDS011;32620;51.704;7.822;2024-01-30T10:59:36;13.32;;;8.68;;
46415;SDS011;32620;51.704;7.822;2024-01-30T11:02:02;13.05;;;8.50;;
46415;SDS011;32620;51.704;7.822;2024-01-30T11:04:35;11.05;;;8.73;;
46415;SDS011;32620;51.704;7.822;2024-01-30T11:07:02;14.43;;;8.50;;
46415;SDS011;32620;51.704;7.822;2024-01-30T11:09:39;14.27;;;7.88;;
46415;SDS011;32620;51.704;7.822;2024-01-30T11:12:06;18.23;;;8.50;;
46415;SDS011;32620;51.704;7.822;2024-01-30T11:14:37;22.08;;;9.05;;
46415;SDS011;32620;51.704;7.822;2024-01-30T11:17:05;18.42;;;9.15;;
46415;SDS011;32620;51.704;7.822;2024-01-30T11:19:33;13.35;;;8.05;;
46415;SDS011;32620;51.704;7.822;2024-01-30T11:22:01;19.38;;;8.25;;
46415;SDS011;32620;51.704;7.822;2024-01-30T11:24:29;19.15;;;8.60;;
46415;SDS011;32620;51.704;7.822;2024-01-30T11:26:58;16.48;;;8.45;;
46415;SDS011;32620;51.704;7.822;2024-01-30T11:29:28;17.02;;;8.85;;
46415;SDS011;32620;51.704;7.822;2024-01-30T11:31:56;13.93;;;8.55;;
46415;SDS011;32620;51.704;7.822;2024-01-30T11:34:24;15.70;;;8.77;;
46415;SDS011;32620;51.704;7.822;2024-01-30T11:36:59;13.50;;;8.35;;
46415;SDS011;32620;51.704;7.822;2024-01-30T11:39:29;13.93;;;8.18;;
46415;SDS011;32620;51.704;7.822;2024-01-30T11:41:57;16.90;;;8.68;;
46415;SDS011;32620;51.704;7.822;2024-01-30T11:44:26;14.13;;;8.63;;
46415;SDS011;32620;51.704;7.822;2024-01-30T11:46:53;17.85;;;8.68;;
46415;SDS011;32620;51.704;7.822;2024-01-30T11:49:21;13.65;;;7.43;;
46415;SDS011;32620;51.704;7.822;2024-01-30T11:51:49;14.55;;;8.38;;
46415;SDS011;32620;51.704;7.822;2024-01-30T11:54:17;14.05;;;7.45;;
46415;SDS011;32620;51.704;7.822;2024-01-30T11:56:43;15.18;;;7.13;;
46415;SDS011;32620;51.704;7.822;2024-01-30T11:59:08;13.00;;;7.32;;
46415;SDS011;32620;51.704;7.822;2024-01-30T12:01:34;13.77;;;6.93;;
46415;SDS011;32620;51.704;7.822;2024-01-30T12:04:00;12.40;;;7.25;;
46415;SDS011;32620;51.704;7.822;2024-01-30T12:06:26;13.40;;;7.50;;
46415;SDS011;32620;51.704;7.822;2024-01-30T12:08:57;13.00;;;7.82;;
46415;SDS011;32620;51.704;7.822;2024-01-30T12:11:25;11.75;;;6.93;;
46415;SDS011;32620;51.704;7.822;2024-01-30T12:13:55;18.77;;;7.38;;
46415;SDS011;32620;51.704;7.822;2024-01-30T12:16:21;15.48;;;7.20;;
46415;SDS011;32620;51.704;7.822;2024-01-30T12:18:47;22.30;;;7.60;;
46415;SDS011;32620;51.704;7.822;2024-01-30T12:21:17;15.15;;;7.70;;
46415;SDS011;32620;51.704;7.822;2024-01-30T12:23:43;17.05;;;8.00;;
46415;SDS011;32620;51.704;7.822;2024-01-30T12:26:09;20.67;;;8.93;;
46415;SDS011;32620;51.704;7.822;2024-01-30T12:28:35;16.10;;;7.57;;
46415;SDS011;32620;51.704;7.822;2024-01-30T12:31:02;20.80;;;7.90;;
46415;SDS011;32620;51.704;7.822;2024-01-30T12:33:28;16.70;;;7.78;;
46415;SDS011;32620;51.704;7.822;2024-01-30T12:35:55;19.48;;;7.72;;
46415;SDS011;32620;51.704;7.822;2024-01-30T12:38:23;18.70;;;8.73;;
46415;SDS011;32620;51.704;7.822;2024-01-30T12:40:49;18.45;;;8.70;;
46415;SDS011;32620;51.704;7.822;2024-01-30T12:43:19;19.38;;;7.72;;
46415;SDS011;32620;51.704;7.822;2024-01-30T12:45:45;15.27;;;8.68;;
46415;SDS011;32620;51.704;7.822;2024-01-30T12:48:12;16.65;;;8.65;;
46415;SDS011;32620;51.704;7.822;2024-01-30T12:50:38;16.55;;;8.68;;
46415;SDS011;32620;51.704;7.822;2024-01-30T12:53:03;21.17;;;8.23;;
46415;SDS011;32620;51.704;7.822;2024-01-30T12:55:29;21.40;;;9.13;;
46415;SDS011;32620;51.704;7.822;2024-01-30T12:57:55;17.10;;;8.98;;
46415;SDS011;32620;51.704;7.822;2024-01-30T13:00:21;17.05;;;8.13;;
46415;SDS011;32620;51.704;7.822;2024-01-30T13:02:47;23.55;;;9.38;;
46415;SDS011;32620;51.704;7.822;2024-01-30T13:05:13;16.10;;;9.02;;
46415;SDS011;32620;51.704;7.822;2024-01-30T13:07:39;18.42;;;9.20;;
46415;SDS011;32620;51.704;7.822;2024-01-30T13:10:05;17.83;;;9.55;;
46415;SDS011;32620;51.704;7.822;2024-01-30T13:12:31;24.02;;;9.77;;
46415;SDS011;32620;51.704;7.822;2024-01-30T13:14:58;17.27;;;9.73;;
46415;SDS011;32620;51.704;7.822;2024-01-30T13:17:26;18.15;;;9.70;;
46415;SDS011;32620;51.704;7.822;2024-01-30T13:19:52;18.98;;;9.43;;
46415;SDS011;32620;51.704;7.822;2024-01-30T13:22:19;18.73;;;9.13;;
46415;SDS011;32620;51.704;7.822;2024-01-30T13:24:46;18.80;;;8.65;;
46415;SDS011;32620;51.704;7.822;2024-01-30T13:27:12;17.38;;;9.65;;
46415;SDS011;32620;51.704;7.822;2024-01-30T13:29:37;17.73;;;8.77;;
46415;SDS011;32620;51.704;7.822;2024-01-30T13:32:03;25.48;;;9.52;;
46415;SDS011;32620;51.704;7.822;2024-01-30T13:34:29;22.83;;;10.82;;
46415;SDS011;32620;51.704;7.822;2024-01-30T13:36:55;19.35;;;10.20;;
46415;SDS011;32620;51.704;7.822;2024-01-30T13:39:20;18.50;;;10.18;;
46415;SDS011;32620;51.704;7.822;2024-01-30T13:41:46;18.80;;;9.63;;
46415;SDS011;32620;51.704;7.822;2024-01-30T13:44:13;24.00;;;9.55;;
46415;SDS011;32620;51.704;7.822;2024-01-30T13:46:39;19.17;;;9.50;;
46415;SDS011;32620;51.704;7.822;2024-01-30T13:49:04;21.33;;;9.25;;
46415;SDS011;32620;51.704;7.822;2024-01-30T13:51:30;21.73;;;8.88;;
46415;SDS011;32620;51.704;7.822;2024-01-30T13:53:55;17.77;;;9.10;;
46415;SDS011;32620;51.704;7.822;2024-01-30T13:56:21;16.10;;;8.63;;
46415;SDS011;32620;51.704;7.822;2024-01-30T13:58:48;18.60;;;8.88;;
46415;SDS011;32620;51.704;7.822;2024-01-30T14:01:15;17.83;;;9.68;;
46415;SDS011;32620;51.704;7.822;2024-01-30T14:03:41;19.10;;;9.02;;
46415;SDS011;32620;51.704;7.822;2024-01-30T14:06:06;17.40;;;9.00;;
46415;SDS011;32620;51.704;7.822;2024-01-30T14:08:32;20.25;;;9.73;;
46415;SDS011;32620;51.704;7.822;2024-01-30T14:10:57;18.98;;;10.13;;
46415;SDS011;32620;51.704;7.822;2024-01-30T14:13:23;19.60;;;9.82;;
46415;SDS011;32620;51.704;7.822;2024-01-30T14:15:50;20.38;;;11.02;;
46415;SDS011;32620;51.704;7.822;2024-01-30T14:18:17;17.92;;;10.55;;